Airport View

Enter AWOS ICAO identifier for current METAR.

ex. KFNL

KPVU 210056Z 17003KT 10SM SCT060 BKN100 11/07 A3010 RMK AO2 SLP173 T01060067

21 Sep 2019 01:14

Frequency: 135.175

Phone: 801-373-9782

Other Area AWOS: KHCR - K36U - KU42 - KSLC

TAF KPVU 202325Z 2100/2124 29010KT P6SM VCSH BKN070 FM210100 30008KT P6SM SCT080 BKN120 FM211100 VRB04KT P6SM SCT008 SCT050 FM211500 20005KT P6SM FEW020 FEW050 FM211900 25007KT P6SM SKC